Time;durP1;ratioP1;P1;durP2;ratioP2;P2;SDS_P1;SDS_P2;PMS_P1;PMS_P2;Temp;Humidity;BMP_temperature;BMP_pressure;BME280_temperature;BME280_humidity;BME280_pressure;Samples;Min_cycle;Max_cycle;Signal;HPM_P1;HPM_P2
2022/05/22 00:01:59;;;;;;;8.05;2.80;;;9.10;99.90;;;;;;4977105;28;20134;-76
2022/05/22 00:04:25;;;;;;;4.70;2.28;;;9.20;99.90;;;;;;4977274;28;20148;-76
2022/05/22 00:06:51;;;;;;;5.55;2.10;;;9.10;99.90;;;;;;4975753;28;20105;-77
2022/05/22 00:09:17;;;;;;;3.75;2.15;;;9.00;99.90;;;;;;4943789;28;20058;-77
2022/05/22 00:11:43;;;;;;;4.57;2.08;;;9.00;99.90;;;;;;4960054;28;20050;-77
2022/05/22 00:14:13;;;;;;;3.22;2.38;;;8.90;99.90;;;;;;4977136;28;20376;-77
2022/05/22 00:16:42;;;;;;;5.03;2.00;;;8.90;99.90;;;;;;4975939;28;20054;-77
2022/05/22 00:19:28;;;;;;;5.22;2.17;;;8.90;99.90;;;;;;4976127;28;20050;-77
2022/05/22 00:21:54;;;;;;;4.25;1.83;;;9.10;99.90;;;;;;4976518;28;20063;-77
2022/05/22 00:24:23;;;;;;;5.43;2.03;;;9.00;99.90;;;;;;4975974;28;20051;-77
2022/05/22 00:26:48;;;;;;;5.57;1.98;;;9.00;99.90;;;;;;4975759;28;20090;-77
2022/05/22 00:29:15;;;;;;;6.05;2.47;;;9.00;99.90;;;;;;4976366;28;20046;-77
2022/05/22 00:31:42;;;;;;;7.03;2.17;;;9.00;99.90;;;;;;4991788;28;20046;-77
2022/05/22 00:34:08;;;;;;;5.07;2.03;;;9.00;99.90;;;;;;4975908;28;20042;-77
2022/05/22 00:36:34;;;;;;;6.00;2.95;;;8.90;99.90;;;;;;4975805;28;20550;-77
2022/05/22 00:39:01;;;;;;;5.72;2.72;;;8.90;99.90;;;;;;4975820;28;20047;-77
2022/05/22 00:41:27;;;;;;;4.90;2.15;;;8.90;99.90;;;;;;4975548;28;20142;-77
2022/05/22 00:43:54;;;;;;;3.88;2.30;;;9.20;99.90;;;;;;4977181;28;20054;-77
2022/05/22 00:46:22;;;;;;;4.95;2.20;;;8.90;99.90;;;;;;4975498;28;20042;-77
2022/05/22 00:48:53;;;;;;;6.32;2.25;;;8.90;99.90;;;;;;4975843;28;20117;-77
2022/05/22 00:51:33;;;;;;;3.47;2.00;;;9.10;99.90;;;;;;4975872;28;20058;-77
2022/05/22 00:54:06;;;;;;;6.82;2.40;;;8.80;99.90;;;;;;4975633;28;20038;-78
2022/05/22 00:56:38;;;;;;;5.95;1.70;;;8.80;99.90;;;;;;4976211;28;20369;-77
2022/05/22 00:59:10;;;;;;;2.60;1.60;;;8.70;99.90;;;;;;4976054;28;20396;-77
2022/05/22 01:01:37;;;;;;;3.17;1.55;;;8.70;99.90;;;;;;4975998;28;20059;-77
2022/05/22 01:04:07;;;;;;;3.40;1.38;;;8.70;99.90;;;;;;4975311;28;20054;-77
2022/05/22 01:06:32;;;;;;;2.67;1.50;;;8.60;99.90;;;;;;4975657;28;20051;-77
2022/05/22 01:08:58;;;;;;;4.60;1.80;;;8.60;99.90;;;;;;4975270;28;20047;-77
2022/05/22 01:11:32;;;;;;;3.65;1.95;;;8.70;99.90;;;;;;4974608;28;20063;-77
2022/05/22 01:14:09;;;;;;;5.95;2.40;;;8.60;99.90;;;;;;4975508;28;20138;-77
2022/05/22 01:16:35;;;;;;;4.50;2.47;;;8.50;99.90;;;;;;4975716;28;20053;-77
2022/05/22 01:19:08;;;;;;;3.78;2.50;;;8.50;99.90;;;;;;4975083;28;20066;-77
2022/05/22 01:21:34;;;;;;;4.25;2.10;;;8.50;99.90;;;;;;4960511;28;20400;-76
2022/05/22 01:24:00;;;;;;;7.00;3.13;;;8.60;99.90;;;;;;4975725;28;20046;-77
2022/05/22 01:26:27;;;;;;;5.00;2.47;;;8.50;99.90;;;;;;4975290;28;20133;-77
2022/05/22 01:28:53;;;;;;;5.25;2.50;;;8.40;99.90;;;;;;4974856;28;20058;-77
2022/05/22 01:31:19;;;;;;;5.95;2.15;;;8.50;99.90;;;;;;4975101;28;20448;-76
2022/05/22 01:33:45;;;;;;;4.20;2.30;;;8.30;99.90;;;;;;4975847;28;20039;-76
2022/05/22 01:36:11;;;;;;;9.25;2.90;;;8.30;99.90;;;;;;4974765;28;20629;-77
2022/05/22 01:38:37;;;;;;;7.22;3.05;;;8.30;99.90;;;;;;4974858;28;20065;-77
2022/05/22 01:41:05;;;;;;;4.95;2.67;;;8.40;99.90;;;;;;4960613;28;20050;-75
2022/05/22 01:43:32;;;;;;;4.18;2.20;;;8.30;99.90;;;;;;4961023;28;20055;-76
2022/05/22 01:45:57;;;;;;;3.20;2.08;;;8.40;99.90;;;;;;4974390;28;20051;-77
2022/05/22 01:48:24;;;;;;;5.88;3.30;;;8.30;99.90;;;;;;4975551;28;20047;-77
2022/05/22 01:50:51;;;;;;;6.57;3.47;;;8.20;99.90;;;;;;4974427;28;20046;-76
2022/05/22 01:53:19;;;;;;;5.32;2.53;;;8.20;99.90;;;;;;4974609;28;20369;-77
2022/05/22 01:55:46;;;;;;;5.68;2.78;;;8.20;99.90;;;;;;4975473;28;20054;-77
2022/05/22 01:58:12;;;;;;;5.47;3.05;;;8.20;99.90;;;;;;4974424;28;20046;-76
2022/05/22 02:00:38;;;;;;;6.05;3.55;;;8.10;99.90;;;;;;4958221;28;20392;-77
2022/05/22 02:03:04;;;;;;;5.28;3.42;;;8.10;99.90;;;;;;4975321;28;20039;-77
2022/05/22 02:05:31;;;;;;;5.25;3.47;;;8.10;99.90;;;;;;4974955;28;20059;-77
2022/05/22 02:10:40;;;;;;;4.30;3.05;;;8.20;99.90;;;;;;4974115;28;20087;-77
2022/05/22 02:13:07;;;;;;;7.07;3.72;;;8.10;99.90;;;;;;4974143;28;20392;-77
2022/05/22 02:15:33;;;;;;;11.02;4.82;;;8.10;99.90;;;;;;4974901;28;20149;-77
2022/05/22 02:17:59;;;;;;;7.00;3.22;;;8.30;99.90;;;;;;4974611;28;20477;-77
2022/05/22 02:20:26;;;;;;;6.43;2.83;;;8.20;99.90;;;;;;4974468;28;20089;-77
2022/05/22 02:22:54;;;;;;;5.25;4.13;;;8.50;99.90;;;;;;4958629;28;20046;-77
2022/05/22 02:25:23;;;;;;;4.50;2.58;;;8.10;99.90;;;;;;4973880;28;20057;-76
2022/05/22 02:27:49;;;;;;;4.65;3.20;;;8.00;99.90;;;;;;4974132;28;20051;-78
2022/05/22 02:30:18;;;;;;;5.35;3.60;;;8.00;99.90;;;;;;4974811;28;20495;-77
2022/05/22 02:32:44;;;;;;;3.85;2.50;;;8.10;99.90;;;;;;4973995;28;20061;-77
2022/05/22 02:35:13;;;;;;;4.95;2.53;;;8.00;99.90;;;;;;4942080;28;20141;-77
2022/05/22 02:37:43;;;;;;;19.25;3.88;;;8.10;99.90;;;;;;4973962;28;20043;-77
2022/05/22 02:40:10;;;;;;;11.98;3.75;;;8.00;99.90;;;;;;4942778;28;20468;-77
2022/05/22 02:42:40;;;;;;;9.90;3.72;;;7.90;99.90;;;;;;4958558;28;20541;-77
2022/05/22 02:45:07;;;;;;;10.80;3.90;;;7.90;99.90;;;;;;4973932;28;20105;-77
2022/05/22 02:47:34;;;;;;;6.30;3.45;;;7.90;99.90;;;;;;4957233;28;20053;-77
2022/05/22 02:50:00;;;;;;;5.63;3.13;;;7.90;99.90;;;;;;4957128;28;20137;-77
2022/05/22 02:52:25;;;;;;;6.10;3.00;;;7.90;99.90;;;;;;4957217;28;20054;-77
2022/05/22 02:54:51;;;;;;;17.55;4.28;;;8.10;99.90;;;;;;4973527;28;20054;-77
2022/05/22 02:57:22;;;;;;;11.73;2.90;;;8.30;99.90;;;;;;4973695;28;20051;-78
2022/05/22 02:59:52;;;;;;;10.05;2.83;;;8.00;99.90;;;;;;4957663;28;20149;-77
2022/05/22 03:02:19;;;;;;;4.57;2.83;;;8.20;99.90;;;;;;4973711;28;20046;-77
2022/05/22 03:04:45;;;;;;;6.20;2.60;;;7.90;99.90;;;;;;4976048;28;20492;-77
2022/05/22 03:07:13;;;;;;;6.47;2.47;;;7.80;99.90;;;;;;4977584;28;20500;-77
2022/05/22 03:09:41;;;;;;;8.13;3.30;;;7.80;99.90;;;;;;4977378;28;20050;-79
2022/05/22 03:12:13;;;;;;;6.38;3.33;;;7.80;99.90;;;;;;4978329;28;20055;-77
2022/05/22 03:14:43;;;;;;;6.18;3.63;;;7.80;99.90;;;;;;4977333;28;20514;-77
2022/05/22 03:17:09;;;;;;;5.20;3.10;;;7.90;99.90;;;;;;4977616;28;20066;-77
2022/05/22 03:19:35;;;;;;;8.73;4.07;;;8.40;99.90;;;;;;4961894;28;20046;-76
2022/05/22 03:22:00;;;;;;;6.80;3.22;;;7.90;99.90;;;;;;4977252;28;20273;-77
2022/05/22 03:24:26;;;;;;;4.80;3.10;;;8.00;99.90;;;;;;4978030;28;20049;-77
2022/05/22 03:26:52;;;;;;;4.28;2.83;;;8.60;99.90;;;;;;4944975;28;20094;-77
2022/05/22 03:29:18;;;;;;;6.57;3.47;;;7.90;99.90;;;;;;4977117;28;20101;-77
2022/05/22 03:31:43;;;;;;;4.43;2.50;;;7.80;99.90;;;;;;4961978;28;20053;-77
2022/05/22 03:34:09;;;;;;;4.18;2.50;;;7.70;99.90;;;;;;4977353;28;20050;-78
2022/05/22 03:36:38;;;;;;;3.50;2.58;;;7.70;99.90;;;;;;4977245;28;20059;-77
2022/05/22 03:39:04;;;;;;;18.52;3.25;;;7.60;99.90;;;;;;4961665;28;20062;-77
2022/05/22 03:41:30;;;;;;;5.60;3.05;;;7.80;99.90;;;;;;4977641;28;20067;-77
2022/05/22 03:43:55;;;;;;;7.15;3.60;;;7.40;99.90;;;;;;4976968;28;20050;-77
2022/05/22 03:46:21;;;;;;;6.03;3.55;;;7.50;99.90;;;;;;4976905;28;20047;-76
2022/05/22 03:48:47;;;;;;;8.82;4.18;;;7.40;99.90;;;;;;4977086;28;20039;-77
2022/05/22 03:51:13;;;;;;;7.60;4.43;;;7.50;99.90;;;;;;4976459;28;20094;-77
2022/05/22 03:53:39;;;;;;;9.82;5.28;;;7.60;99.90;;;;;;4976497;28;20082;-77
2022/05/22 03:56:16;;;;;;;7.30;4.22;;;7.70;99.90;;;;;;4976281;28;20054;-76
2022/05/22 03:58:42;;;;;;;9.50;3.80;;;7.70;99.90;;;;;;4976631;28;20054;-77
2022/05/22 04:01:09;;;;;;;7.97;3.80;;;7.70;99.90;;;;;;4960437;28;20051;-76
2022/05/22 04:03:35;;;;;;;3.47;2.70;;;7.80;99.90;;;;;;4976179;28;20043;-76
2022/05/22 04:06:02;;;;;;;4.88;3.00;;;8.50;99.90;;;;;;4976337;28;20506;-77
2022/05/22 04:08:29;;;;;;;5.95;3.55;;;7.80;99.90;;;;;;4976882;28;20059;-77
2022/05/22 04:10:56;;;;;;;6.78;4.07;;;7.90;99.90;;;;;;4960437;28;20055;-77
2022/05/22 04:13:22;;;;;;;8.73;3.97;;;7.90;99.90;;;;;;4977273;28;20081;-77
2022/05/22 04:15:48;;;;;;;6.07;3.65;;;8.00;99.90;;;;;;4959830;28;20141;-77
2022/05/22 04:18:14;;;;;;;8.48;4.28;;;8.00;99.90;;;;;;4977437;28;20138;-77
2022/05/22 04:20:40;;;;;;;5.47;4.03;;;8.00;99.90;;;;;;4976370;28;20043;-79
2022/05/22 04:25:55;;;;;;;8.02;4.93;;;8.10;99.90;;;;;;4976130;28;20053;-76
2022/05/22 04:28:25;;;;;;;9.40;4.90;;;8.20;99.90;;;;;;4976235;28;20063;-77
2022/05/22 04:30:51;;;;;;;9.63;5.53;;;8.20;99.90;;;;;;4959926;28;20051;-77
2022/05/22 04:33:17;;;;;;;10.35;5.50;;;8.30;99.90;;;;;;4976156;28;20100;-77
2022/05/22 04:35:44;;;;;;;10.75;5.63;;;8.40;99.90;;;;;;4977808;28;20096;-77
2022/05/22 04:38:11;;;;;;;11.73;5.82;;;8.50;99.90;;;;;;4960508;28;20051;-77
2022/05/22 04:40:38;;;;;;;11.02;6.13;;;8.50;99.90;;;;;;4976217;28;20054;-77
2022/05/22 04:43:04;;;;;;;10.93;6.25;;;8.60;99.90;;;;;;4975658;28;20121;-78
2022/05/22 04:45:31;;;;;;;10.77;6.30;;;8.70;99.90;;;;;;4959387;28;20177;-78
2022/05/22 04:47:56;;;;;;;9.32;5.03;;;8.80;99.90;;;;;;4975990;28;20055;-78
2022/05/22 04:50:23;;;;;;;8.27;4.70;;;9.00;99.90;;;;;;4976470;28;20054;-76
2022/05/22 04:52:48;;;;;;;10.52;6.13;;;9.00;99.90;;;;;;4976713;28;20499;-77
2022/05/22 04:55:14;;;;;;;12.15;6.00;;;9.00;99.90;;;;;;4975551;28;20043;-77
2022/05/22 04:57:40;;;;;;;10.45;5.50;;;9.10;99.90;;;;;;4977298;28;20051;-77
2022/05/22 05:00:11;;;;;;;13.50;5.65;;;9.30;99.90;;;;;;4992415;28;20460;-77
2022/05/22 05:02:38;;;;;;;8.75;5.20;;;9.30;99.90;;;;;;4991981;28;20113;-77
2022/05/22 05:05:10;;;;;;;9.52;5.57;;;9.30;99.90;;;;;;4975120;28;20057;-77
2022/05/22 05:07:38;;;;;;;9.20;5.35;;;9.40;99.90;;;;;;4975129;28;20043;-77
2022/05/22 05:10:05;;;;;;;10.75;5.80;;;9.50;99.90;;;;;;4974930;28;20051;-76
2022/05/22 05:12:31;;;;;;;10.05;5.68;;;9.60;99.90;;;;;;4975314;28;20043;-77
2022/05/22 05:14:57;;;;;;;11.00;5.43;;;9.70;99.90;;;;;;4975221;28;20061;-77
2022/05/22 05:17:23;;;;;;;12.77;5.68;;;9.90;99.90;;;;;;4959498;28;20054;-77
2022/05/22 05:19:48;;;;;;;12.65;5.50;;;10.00;99.90;;;;;;4959054;28;20045;-77
2022/05/22 05:22:15;;;;;;;13.15;5.90;;;10.20;99.90;;;;;;4977100;28;20090;-76
2022/05/22 05:24:41;;;;;;;13.35;6.03;;;10.30;99.90;;;;;;4977678;28;20054;-76
2022/05/22 05:27:07;;;;;;;13.27;5.82;;;10.50;99.90;;;;;;4975310;28;20353;-76
2022/05/22 05:29:32;;;;;;;10.15;5.68;;;10.60;99.90;;;;;;4976040;28;20383;-76
2022/05/22 05:31:58;;;;;;;11.10;5.55;;;10.80;99.90;;;;;;4975189;28;20128;-77
2022/05/22 05:34:24;;;;;;;13.20;5.95;;;10.90;99.90;;;;;;4975850;28;20110;-76
2022/05/22 05:36:49;;;;;;;13.00;5.80;;;10.90;99.90;;;;;;4943556;28;20043;-77
2022/05/22 05:39:15;;;;;;;11.77;5.30;;;11.00;99.90;;;;;;4974650;28;20054;-77
2022/05/22 05:41:41;;;;;;;11.48;5.70;;;11.10;99.90;;;;;;4975613;28;20043;-76
2022/05/22 05:44:08;;;;;;;11.95;5.30;;;11.20;99.90;;;;;;4975209;28;20046;-76
2022/05/22 05:46:37;;;;;;;7.70;5.60;;;11.30;99.90;;;;;;4974475;28;20513;-76
2022/05/22 05:49:05;;;;;;;9.18;5.30;;;11.40;99.90;;;;;;4975373;28;20047;-77
2022/05/22 05:51:31;;;;;;;10.75;5.10;;;11.50;99.90;;;;;;4975490;28;20043;-77
2022/05/22 05:53:57;;;;;;;10.80;5.38;;;11.60;99.90;;;;;;4958517;28;20053;-77
2022/05/22 05:56:23;;;;;;;8.98;4.95;;;11.70;99.90;;;;;;4975362;28;20122;-77
2022/05/22 05:58:49;;;;;;;11.27;5.05;;;11.70;99.90;;;;;;4958261;28;20047;-77
2022/05/22 06:01:17;;;;;;;11.48;5.25;;;11.80;99.90;;;;;;4975389;28;20047;-76
2022/05/22 06:03:42;;;;;;;11.88;5.35;;;12.00;99.90;;;;;;4974522;28;20134;-77
2022/05/22 06:06:10;;;;;;;11.40;4.57;;;12.10;99.90;;;;;;4958045;28;20126;-77
2022/05/22 06:08:36;;;;;;;11.77;4.93;;;12.20;99.90;;;;;;4974062;28;20109;-77
2022/05/22 06:11:02;;;;;;;10.35;5.00;;;12.30;99.90;;;;;;4957777;28;20062;-77
2022/05/22 06:13:28;;;;;;;8.48;4.50;;;12.40;99.90;;;;;;4975314;28;20133;-77
2022/05/22 06:15:54;;;;;;;11.15;4.32;;;12.40;99.90;;;;;;4975174;28;20070;-76
2022/05/22 06:18:20;;;;;;;10.63;4.90;;;12.50;99.90;;;;;;4958886;28;20506;-76
2022/05/22 06:20:46;;;;;;;9.73;4.85;;;12.50;99.90;;;;;;4974005;28;20407;-77
2022/05/22 06:23:12;;;;;;;10.68;5.40;;;12.60;99.90;;;;;;4975002;28;20046;-77
2022/05/22 06:25:44;;;;;;;10.50;4.88;;;12.70;99.90;;;;;;4974973;28;20172;-78
2022/05/22 06:28:11;;;;;;;11.65;5.20;;;12.80;99.90;;;;;;4974617;28;20129;-78
2022/05/22 06:30:36;;;;;;;9.13;4.65;;;12.80;99.90;;;;;;4974851;28;20097;-78
2022/05/22 06:33:07;;;;;;;12.30;4.63;;;12.90;99.90;;;;;;4958124;28;20083;-79
2022/05/22 06:35:33;;;;;;;8.32;4.75;;;13.00;99.90;;;;;;4975751;28;20039;-78
2022/05/22 06:37:58;;;;;;;15.00;5.28;;;13.00;99.90;;;;;;4973728;28;20053;-78
2022/05/22 06:40:24;;;;;;;10.25;4.55;;;13.20;99.90;;;;;;4973682;28;20053;-79
2022/05/22 06:42:50;;;;;;;8.25;4.32;;;13.10;99.90;;;;;;4973493;28;20053;-78
2022/05/22 06:45:17;;;;;;;6.10;4.35;;;13.20;99.90;;;;;;4973432;28;20047;-78
2022/05/22 06:47:44;;;;;;;8.95;4.45;;;13.30;99.90;;;;;;4974161;28;20043;-79
2022/05/22 06:50:22;;;;;;;12.90;4.68;;;13.30;99.90;;;;;;4974858;28;20105;-77
2022/05/22 06:52:48;;;;;;;7.63;4.35;;;13.40;99.90;;;;;;4974644;28;20130;-78
2022/05/22 06:55:15;;;;;;;7.93;4.30;;;13.40;99.90;;;;;;4974568;28;20612;-77
2022/05/22 06:57:41;;;;;;;8.77;3.75;;;13.50;99.90;;;;;;4974621;28;20058;-78
2022/05/22 07:00:12;;;;;;;5.60;3.15;;;13.50;99.90;;;;;;4973496;28;20101;-85
2022/05/22 07:02:39;;;;;;;7.80;3.10;;;13.60;99.90;;;;;;4974789;28;20042;-74
2022/05/22 07:05:05;;;;;;;12.75;4.13;;;13.60;99.90;;;;;;4974648;28;20054;-74
2022/05/22 07:07:31;;;;;;;8.20;3.97;;;13.70;99.90;;;;;;4974573;28;20047;-74
2022/05/22 07:09:57;;;;;;;6.03;3.58;;;13.80;99.90;;;;;;4974699;28;20054;-74
2022/05/22 07:12:24;;;;;;;8.65;3.50;;;13.90;99.90;;;;;;4974351;28;20055;-74
2022/05/22 07:14:53;;;;;;;10.27;3.55;;;13.90;99.90;;;;;;4974081;28;20500;-74
2022/05/22 07:17:23;;;;;;;12.68;3.33;;;14.00;99.90;;;;;;4974473;28;20435;-73
2022/05/22 07:19:49;;;;;;;6.03;2.50;;;14.00;99.90;;;;;;4974241;28;20050;-74
2022/05/22 07:22:15;;;;;;;6.43;3.22;;;14.10;99.90;;;;;;4974793;28;20399;-74
2022/05/22 07:24:40;;;;;;;7.78;3.70;;;14.20;99.90;;;;;;4974152;28;20399;-75
2022/05/22 07:27:06;;;;;;;11.23;3.28;;;14.20;99.90;;;;;;4975243;28;20137;-74
2022/05/22 07:29:32;;;;;;;7.55;2.97;;;14.30;99.90;;;;;;4975265;28;20046;-74
2022/05/22 07:31:58;;;;;;;9.13;3.45;;;14.30;99.90;;;;;;4974125;28;20047;-73
2022/05/22 07:34:25;;;;;;;6.22;2.70;;;14.40;99.90;;;;;;4972918;28;20047;-73
2022/05/22 07:36:56;;;;;;;6.40;2.85;;;14.40;99.90;;;;;;4974366;28;20055;-73
2022/05/22 07:39:22;;;;;;;5.32;2.60;;;14.50;99.90;;;;;;4974029;28;20110;-73
2022/05/22 07:41:48;;;;;;;8.63;3.75;;;14.60;99.90;;;;;;4973305;28;20050;-75
2022/05/22 07:44:13;;;;;;;8.90;3.40;;;14.70;99.90;;;;;;4976073;28;20051;-75
2022/05/22 07:46:39;;;;;;;7.15;2.90;;;14.70;99.90;;;;;;4974778;28;20042;-74
2022/05/22 07:49:05;;;;;;;8.35;2.88;;;14.80;99.90;;;;;;4973172;28;20051;-75
2022/05/22 07:51:30;;;;;;;10.60;3.53;;;14.90;99.90;;;;;;4977865;28;20068;-75
2022/05/22 07:53:56;;;;;;;7.78;2.60;;;14.90;99.90;;;;;;4978368;28;20491;-75
2022/05/22 07:56:22;;;;;;;7.63;2.83;;;14.90;99.90;;;;;;4977725;28;20039;-75
2022/05/22 07:58:50;;;;;;;6.93;3.05;;;14.90;99.90;;;;;;4977556;28;20061;-74
2022/05/22 08:01:17;;;;;;;7.30;2.70;;;15.00;99.90;;;;;;4977953;28;20046;-74
2022/05/22 08:03:44;;;;;;;6.30;2.50;;;15.00;99.90;;;;;;4977603;28;20077;-74
2022/05/22 08:06:10;;;;;;;6.85;3.00;;;15.10;99.90;;;;;;4975923;28;20042;-75
2022/05/22 08:08:37;;;;;;;8.48;3.30;;;15.30;99.90;;;;;;4977417;28;20480;-74
2022/05/22 08:11:03;;;;;;;7.65;3.08;;;15.30;99.90;;;;;;4977771;28;20349;-73
2022/05/22 08:13:29;;;;;;;4.72;2.60;;;15.40;99.90;;;;;;4977469;28;20054;-74
2022/05/22 08:15:55;;;;;;;11.45;3.40;;;15.40;99.90;;;;;;4978263;28;20054;-75
2022/05/22 08:18:20;;;;;;;7.63;3.08;;;15.40;99.90;;;;;;4977933;28;20475;-76
2022/05/22 08:20:49;;;;;;;4.90;2.65;;;15.40;99.90;;;;;;4976137;28;20043;-76
2022/05/22 08:23:22;;;;;;;7.03;2.63;;;15.50;99.90;;;;;;4977207;28;20057;-76
2022/05/22 08:25:49;;;;;;;7.15;2.50;;;15.60;99.90;;;;;;4976954;28;20452;-76
2022/05/22 08:28:15;;;;;;;8.82;2.50;;;15.70;99.90;;;;;;4976939;28;20047;-76
2022/05/22 08:30:41;;;;;;;7.63;2.95;;;15.70;99.90;;;;;;4975937;28;20062;-74
2022/05/22 08:33:07;;;;;;;6.10;2.47;;;15.80;99.90;;;;;;4960216;28;20097;-74
2022/05/22 08:35:36;;;;;;;6.78;2.78;;;15.70;99.90;;;;;;4976883;28;20472;-75
2022/05/22 08:38:02;;;;;;;7.45;2.80;;;15.80;99.90;;;;;;4976793;28;20054;-74
2022/05/22 08:40:38;;;;;;;5.95;1.92;;;15.80;99.90;;;;;;4977273;28;20130;-74
2022/05/22 08:43:09;;;;;;;8.00;2.70;;;15.80;99.90;;;;;;4976811;28;20046;-74
2022/05/22 08:45:45;;;;;;;6.50;2.28;;;15.80;99.90;;;;;;4976590;28;20053;-74
2022/05/22 08:48:24;;;;;;;6.47;2.95;;;16.00;99.90;;;;;;4977491;28;20116;-73
2022/05/22 08:50:50;;;;;;;5.20;2.50;;;16.10;99.90;;;;;;4977734;28;20432;-74
2022/05/22 08:53:27;;;;;;;4.97;2.95;;;16.20;99.90;;;;;;4976777;28;20097;-74
2022/05/22 08:58:57;;;;;;;7.25;3.22;;;16.40;99.90;;;;;;4976728;28;20050;-74
2022/05/22 09:01:35;;;;;;;5.70;2.72;;;16.50;99.90;;;;;;4976664;28;20086;-74
2022/05/22 09:04:16;;;;;;;4.82;2.30;;;16.70;99.90;;;;;;4976132;28;20065;-74
2022/05/22 09:06:52;;;;;;;6.57;1.95;;;16.70;99.90;;;;;;4975355;28;20106;-75
2022/05/22 09:09:18;;;;;;;5.53;1.95;;;16.80;99.90;;;;;;4975970;28;20142;-77
2022/05/22 09:12:30;;;;;;;7.68;2.00;;;16.90;99.90;;;;;;4960219;28;20104;-74
2022/05/22 09:15:19;;;;;;;4.95;1.98;;;16.80;99.90;;;;;;4924311;28;20091;-76
2022/05/22 09:17:53;;;;;;;4.90;1.92;;;17.00;99.90;;;;;;4967822;28;20061;-76
2022/05/22 09:20:33;;;;;;;5.35;2.35;;;17.10;99.90;;;;;;4976785;28;20106;-75
2022/05/22 09:23:10;;;;;;;3.78;1.70;;;17.10;99.90;;;;;;4976821;28;20431;-75
2022/05/22 09:26:13;;;;;;;6.05;2.03;;;17.20;99.90;;;;;;4976368;28;20186;-74
2022/05/22 09:28:42;;;;;;;5.03;2.08;;;17.20;99.90;;;;;;4975236;28;20089;-75
2022/05/22 09:31:34;;;;;;;7.63;2.50;;;17.30;99.90;;;;;;4976202;28;20380;-75
2022/05/22 09:34:12;;;;;;;7.50;1.83;;;17.20;99.90;;;;;;4974755;28;20101;-74
2022/05/22 09:36:44;;;;;;;5.50;2.10;;;17.00;99.90;;;;;;4976556;28;20082;-74
2022/05/22 09:39:28;;;;;;;6.40;1.70;;;16.80;99.90;;;;;;4975743;28;20054;-73
2022/05/22 09:42:13;;;;;;;4.97;1.63;;;16.70;99.90;;;;;;4975463;28;20051;-74
2022/05/22 09:45:20;;;;;;;3.90;1.88;;;16.70;99.90;;;;;;4974632;28;20054;-75
2022/05/22 09:48:05;;;;;;;4.55;1.88;;;16.80;99.90;;;;;;4976147;28;20039;-73
2022/05/22 09:50:52;;;;;;;4.88;1.80;;;16.90;99.90;;;;;;4975073;28;20054;-73
2022/05/22 09:53:40;;;;;;;4.18;1.90;;;16.90;99.90;;;;;;4975544;28;20058;-73
2022/05/22 09:56:32;;;;;;;4.82;2.00;;;16.90;99.90;;;;;;4975792;28;20101;-73
2022/05/22 09:59:05;;;;;;;4.63;1.83;;;17.00;99.90;;;;;;4964098;28;20105;-74
2022/05/22 10:01:40;;;;;;;3.00;1.48;;;17.20;99.90;;;;;;4974673;28;20062;-73
2022/05/22 10:04:30;;;;;;;7.88;2.05;;;17.30;99.90;;;;;;4975382;28;20091;-74
2022/05/22 10:07:05;;;;;;;4.78;1.50;;;17.30;99.90;;;;;;4974790;28;20043;-73
2022/05/22 10:09:54;;;;;;;3.67;1.30;;;17.10;99.90;;;;;;4973791;28;20054;-73
2022/05/22 10:13:02;;;;;;;3.92;1.30;;;16.90;99.90;;;;;;4967648;28;20058;-73
2022/05/22 10:15:44;;;;;;;4.82;1.40;;;16.80;99.90;;;;;;4975687;28;20055;-74
2022/05/22 10:18:43;;;;;;;6.65;1.55;;;16.90;99.90;;;;;;4975009;28;20483;-73
2022/05/22 10:21:17;;;;;;;3.03;1.27;;;17.00;99.90;;;;;;4974874;28;20117;-74
2022/05/22 10:24:10;;;;;;;4.03;1.35;;;17.00;99.90;;;;;;4974883;28;20174;-74
2022/05/22 10:26:48;;;;;;;3.38;1.52;;;17.10;99.90;;;;;;4974201;28;20062;-73
2022/05/22 10:29:28;;;;;;;4.38;1.60;;;17.30;99.90;;;;;;4974848;28;20130;-73
2022/05/22 10:31:54;;;;;;;4.88;1.45;;;17.40;99.90;;;;;;4975630;28;20043;-73
2022/05/22 10:34:32;;;;;;;8.63;1.70;;;17.40;99.90;;;;;;4975346;28;20058;-73
2022/05/22 10:37:03;;;;;;;4.45;1.40;;;17.50;99.90;;;;;;4974786;28;20049;-73
2022/05/22 10:39:28;;;;;;;5.95;1.50;;;17.50;99.90;;;;;;4974386;28;20354;-73
2022/05/22 10:45:18;;;;;;;3.88;1.38;;;17.60;99.90;;;;;;4975433;28;20407;-73
2022/05/22 10:47:44;;;;;;;2.55;1.20;;;17.70;99.90;;;;;;4973872;28;20042;-73
2022/05/22 10:50:25;;;;;;;8.15;1.90;;;17.80;99.90;;;;;;4974451;28;20051;-73
2022/05/22 10:52:51;;;;;;;4.47;1.60;;;17.80;99.90;;;;;;4974484;28;20073;-73
2022/05/22 10:55:31;;;;;;;4.68;1.40;;;17.70;99.90;;;;;;4974765;28;20435;-73
2022/05/22 10:58:16;;;;;;;3.65;1.45;;;17.60;99.90;;;;;;4974447;28;20050;-73
2022/05/22 11:00:55;;;;;;;5.15;1.63;;;17.60;99.90;;;;;;4974309;28;20086;-73
2022/05/22 11:03:26;;;;;;;4.13;1.40;;;17.60;99.90;;;;;;4974463;28;20039;-73
2022/05/22 11:05:52;;;;;;;6.40;2.13;;;17.60;99.90;;;;;;4974533;28;20046;-72
2022/05/22 11:08:31;;;;;;;6.03;1.40;;;17.60;99.90;;;;;;4974383;28;20109;-72
2022/05/22 11:11:11;;;;;;;4.05;1.58;;;17.60;99.90;;;;;;4973073;28;20058;-72
2022/05/22 11:13:37;;;;;;;6.72;1.77;;;17.60;99.90;;;;;;4975034;28;20054;-72
2022/05/22 11:16:12;;;;;;;5.05;1.70;;;17.60;99.90;;;;;;4973465;28;20050;-72
2022/05/22 11:18:38;;;;;;;3.97;1.38;;;17.60;99.90;;;;;;4974786;28;20574;-73
2022/05/22 11:21:11;;;;;;;4.28;1.40;;;17.50;99.90;;;;;;4973633;28;20054;-73
2022/05/22 11:23:50;;;;;;;4.07;1.20;;;17.40;99.90;;;;;;4973646;28;20057;-73
2022/05/22 11:26:49;;;;;;;4.68;1.48;;;17.50;99.90;;;;;;4977340;28;20494;-72
2022/05/22 11:30:00;;;;;;;6.90;2.08;;;17.70;99.90;;;;;;4977169;28;20053;-72
2022/05/22 11:33:11;;;;;;;5.40;1.80;;;17.90;99.90;;;;;;4963254;28;20135;-72
2022/05/22 11:36:18;;;;;;;6.57;2.17;;;18.10;99.90;;;;;;4978038;28;20089;-72
2022/05/22 11:39:29;;;;;;;4.53;1.33;;;18.30;99.90;;;;;;4977252;28;20527;-72
2022/05/22 11:42:01;;;;;;;3.80;1.77;;;18.50;99.90;;;;;;4918066;29;20456;-72
2022/05/22 11:44:26;;;;;;;4.60;1.70;;;18.60;99.90;;;;;;4918721;29;20363;-72
2022/05/22 11:46:57;;;;;;;2.50;1.50;;;18.70;99.90;;;;;;4950846;28;20082;-73
2022/05/22 11:49:48;;;;;;;4.90;1.90;;;18.70;99.90;;;;;;4977761;28;20058;-72
2022/05/22 11:52:53;;;;;;;3.22;1.65;;;18.70;99.90;;;;;;4977919;28;20053;-72
2022/05/22 11:55:14;;;;;;;4.80;1.60;;;18.70;99.90;;;;;;4977748;28;20046;-72
2022/05/22 11:57:50;;;;;;;5.75;1.85;;;18.80;99.90;;;;;;4978210;28;20419;-72
2022/05/22 12:00:40;;;;;;;3.95;1.70;;;18.80;99.90;;;;;;4978214;28;20054;-72
2022/05/22 12:03:09;;;;;;;4.20;1.55;;;18.90;99.90;;;;;;4978362;28;20110;-72
2022/05/22 12:05:53;;;;;;;5.70;1.85;;;19.10;99.90;;;;;;4976413;28;20043;-72
2022/05/22 12:08:40;;;;;;;5.07;1.67;;;19.20;99.90;;;;;;4976503;28;20116;-72
2022/05/22 12:11:17;;;;;;;3.47;1.42;;;19.30;99.90;;;;;;4977579;28;20063;-72
2022/05/22 12:13:52;;;;;;;6.03;1.60;;;19.40;99.90;;;;;;4977339;28;20051;-72
2022/05/22 12:16:43;;;;;;;6.83;1.70;;;19.40;99.90;;;;;;4976933;28;20058;-72
2022/05/22 12:19:23;;;;;;;3.65;1.52;;;19.50;99.90;;;;;;4977792;28;20396;-72
2022/05/22 12:22:14;;;;;;;4.97;1.50;;;19.50;99.90;;;;;;4976012;28;20047;-72
2022/05/22 12:24:52;;;;;;;4.80;1.50;;;19.60;99.90;;;;;;4978011;28;20072;-73
2022/05/22 12:27:23;;;;;;;4.20;1.30;;;19.70;99.90;;;;;;4977020;28;20045;-73
2022/05/22 12:30:10;;;;;;;3.20;1.38;;;19.70;99.90;;;;;;4977124;28;20127;-72
2022/05/22 12:33:00;;;;;;;5.05;1.67;;;19.70;99.90;;;;;;4977233;28;20138;-72
2022/05/22 12:35:26;;;;;;;3.83;1.50;;;19.60;99.90;;;;;;4976795;28;20050;-71
2022/05/22 12:38:00;;;;;;;3.03;1.33;;;19.50;99.90;;;;;;4976919;28;20101;-72
2022/05/22 12:40:36;;;;;;;5.53;1.40;;;19.30;99.90;;;;;;4959524;28;20039;-73
2022/05/22 12:43:03;;;;;;;;;;;19.20;99.90;;;;;;4977419;28;20504;-72
2022/05/22 12:45:30;;;;;;;4.65;1.25;;;19.00;99.90;;;;;;4976595;28;20386;-72
2022/05/22 12:48:26;;;;;;;3.70;1.15;;;18.80;99.90;;;;;;4975806;28;20074;-72
2022/05/22 12:51:13;;;;;;;3.47;1.02;;;18.70;99.90;;;;;;4976785;28;20046;-72
2022/05/22 12:53:46;;;;;;;4.97;1.30;;;18.60;99.90;;;;;;4965826;28;20140;-72
2022/05/22 12:56:23;;;;;;;3.60;1.38;;;18.50;99.90;;;;;;4975392;28;20110;-72
2022/05/22 12:59:02;;;;;;;3.90;1.15;;;18.50;99.90;;;;;;4977401;28;20431;-72
2022/05/22 13:01:45;;;;;;;3.50;1.38;;;18.60;99.90;;;;;;4976496;28;20047;-72
2022/05/22 13:04:19;;;;;;;4.60;1.30;;;18.60;99.90;;;;;;4977561;28;20097;-72
2022/05/22 13:06:51;;;;;;;3.45;1.20;;;18.60;99.90;;;;;;4976786;28;20121;-72
2022/05/22 13:09:36;;;;;;;5.22;1.45;;;18.50;99.90;;;;;;4976181;28;20054;-72
2022/05/22 13:12:08;;;;;;;2.88;1.30;;;18.50;99.90;;;;;;4976542;28;20054;-72
2022/05/22 13:14:58;;;;;;;2.45;1.20;;;18.50;99.90;;;;;;4976119;28;20057;-72
2022/05/22 13:17:52;;;;;;;4.15;1.20;;;18.50;99.90;;;;;;4976251;28;20054;-72
2022/05/22 13:20:44;;;;;;;4.15;1.33;;;18.40;99.90;;;;;;4976245;28;20086;-72
2022/05/22 13:23:44;;;;;;;6.05;1.52;;;18.50;99.90;;;;;;4976722;28;20046;-72
2022/05/22 13:26:19;;;;;;;4.25;1.45;;;18.40;99.90;;;;;;4975603;28;20167;-72